createdAt,value
2017-09-21T00:01:41.938Z,4.43
2017-09-21T00:04:16.035Z,4.70
2017-09-21T00:06:50.080Z,3.93
2017-09-21T00:09:18.804Z,4.10
2017-09-21T00:11:47.081Z,4.50
2017-09-21T00:14:15.397Z,4.30
2017-09-21T00:16:43.724Z,4.20
2017-09-21T00:19:12.089Z,4.13
2017-09-21T00:21:40.479Z,4.40
2017-09-21T00:24:08.793Z,4.10
2017-09-21T00:26:37.509Z,4.90
2017-09-21T00:29:05.839Z,4.60
2017-09-21T00:31:34.156Z,5.57
2017-09-21T00:34:02.510Z,5.30
2017-09-21T00:36:31.190Z,4.63
2017-09-21T00:38:59.499Z,5.20
2017-09-21T00:41:27.839Z,4.70
2017-09-21T00:43:56.147Z,5.40
2017-09-21T00:46:24.487Z,5.77
2017-09-21T00:48:52.798Z,4.70
2017-09-21T00:51:21.112Z,5.40
2017-09-21T00:53:49.571Z,5.80
2017-09-21T00:56:17.990Z,5.63
2017-09-21T00:58:46.939Z,5.57
2017-09-21T01:01:15.299Z,5.87
2017-09-21T01:03:43.633Z,6.00
2017-09-21T01:06:12.035Z,5.23
2017-09-21T01:08:40.445Z,4.93
2017-09-21T01:11:08.797Z,5.23
2017-09-21T01:13:37.195Z,6.00
2017-09-21T01:16:05.579Z,5.90
2017-09-21T01:18:33.905Z,5.90
2017-09-21T01:21:02.211Z,5.23
2017-09-21T01:23:30.595Z,4.33
2017-09-21T01:25:58.942Z,4.67
2017-09-21T01:28:27.263Z,5.93
2017-09-21T01:30:55.604Z,6.33
2017-09-21T01:33:23.896Z,4.60
2017-09-21T01:35:52.369Z,4.97
2017-09-21T01:38:20.678Z,5.80
2017-09-21T01:40:49.123Z,5.60
2017-09-21T01:43:17.427Z,5.90
2017-09-21T01:45:45.756Z,6.93
2017-09-21T01:48:14.151Z,5.70
2017-09-21T01:50:42.507Z,6.73
2017-09-21T01:53:10.844Z,6.17
2017-09-21T01:55:39.201Z,7.07
2017-09-21T01:58:07.687Z,6.33
2017-09-21T02:00:36.216Z,6.50
2017-09-21T02:03:04.512Z,7.13
2017-09-21T02:05:33.611Z,6.30
2017-09-21T02:08:01.945Z,6.60
2017-09-21T02:10:30.481Z,5.83
2017-09-21T02:12:58.832Z,7.63
2017-09-21T02:15:27.259Z,6.87
2017-09-21T02:17:55.560Z,7.40
2017-09-21T02:20:23.877Z,8.30
2017-09-21T02:22:52.295Z,8.17
2017-09-21T02:25:20.775Z,7.90
2017-09-21T02:27:49.067Z,8.07
2017-09-21T02:30:17.375Z,8.00
2017-09-21T02:32:45.731Z,7.40
2017-09-21T02:35:14.060Z,8.27
2017-09-21T02:37:42.447Z,7.80
2017-09-21T02:40:10.792Z,8.60
2017-09-21T02:42:39.113Z,9.63
2017-09-21T02:45:07.443Z,8.03
2017-09-21T02:47:42.614Z,8.57
2017-09-21T02:50:10.967Z,9.70
2017-09-21T02:52:39.318Z,8.23
2017-09-21T02:55:07.693Z,9.60
2017-09-21T02:57:36.087Z,10.67
2017-09-21T03:00:04.461Z,9.10
2017-09-21T03:02:32.873Z,9.47
2017-09-21T03:05:01.375Z,7.23
2017-09-21T03:07:29.747Z,9.27
2017-09-21T03:09:58.078Z,9.53
2017-09-21T03:12:26.458Z,7.40
2017-09-21T03:14:54.737Z,9.40
2017-09-21T03:17:23.080Z,9.67
2017-09-21T03:19:51.408Z,9.60
2017-09-21T03:22:19.838Z,10.50
2017-09-21T03:24:48.135Z,10.33
2017-09-21T03:27:16.531Z,8.97
2017-09-21T03:29:44.855Z,10.63
2017-09-21T03:32:13.225Z,10.10
2017-09-21T03:34:41.620Z,9.47
2017-09-21T03:37:10.015Z,11.13
2017-09-21T03:39:38.462Z,10.63
2017-09-21T03:42:06.820Z,9.77
2017-09-21T03:44:35.120Z,7.87
2017-09-21T03:47:03.505Z,12.13
2017-09-21T03:49:31.811Z,12.53
2017-09-21T03:52:00.561Z,13.70
2017-09-21T03:54:28.893Z,14.63
2017-09-21T03:56:57.308Z,14.33
2017-09-21T03:59:25.645Z,14.63
2017-09-21T04:04:49.544Z,18.00
2017-09-21T04:07:17.885Z,14.13
2017-09-21T04:09:52.736Z,17.63
2017-09-21T04:12:21.068Z,19.27
2017-09-21T04:14:49.412Z,18.13
2017-09-21T04:17:17.785Z,19.43
2017-09-21T04:19:46.081Z,20.97
2017-09-21T04:22:14.406Z,15.13
2017-09-21T04:24:42.684Z,20.00
2017-09-21T04:27:11.128Z,20.40
2017-09-21T04:29:39.388Z,18.43
2017-09-21T04:32:07.728Z,17.87
2017-09-21T04:34:35.981Z,22.33
2017-09-21T04:37:04.952Z,19.77
2017-09-21T04:39:33.223Z,15.50
2017-09-21T04:42:01.557Z,19.10
2017-09-21T04:44:29.930Z,19.93
2017-09-21T04:46:58.307Z,20.07
2017-09-21T04:49:26.639Z,18.93
2017-09-21T04:51:54.960Z,23.23
2017-09-21T04:54:23.241Z,18.00
2017-09-21T04:56:51.587Z,20.30
2017-09-21T04:59:19.942Z,21.50
2017-09-21T05:01:48.269Z,21.67
2017-09-21T05:04:17.348Z,19.92
2017-09-21T05:06:46.445Z,16.92
2017-09-21T05:09:14.692Z,22.40
2017-09-21T05:11:42.964Z,21.37
2017-09-21T05:14:11.283Z,20.00
2017-09-21T05:16:39.892Z,21.20
2017-09-21T05:19:08.157Z,24.17
2017-09-21T05:21:36.443Z,22.80
2017-09-21T05:24:04.701Z,23.60
2017-09-21T05:26:32.985Z,23.30
2017-09-21T05:29:01.408Z,22.37
2017-09-21T05:31:29.693Z,21.23
2017-09-21T05:33:58.012Z,24.20
2017-09-21T05:36:26.310Z,20.30
2017-09-21T05:38:54.623Z,23.33
2017-09-21T05:41:22.939Z,21.47
2017-09-21T05:43:51.353Z,22.27
2017-09-21T05:46:19.643Z,21.90
2017-09-21T05:48:48.146Z,22.63
2017-09-21T05:51:16.404Z,21.67
2017-09-21T05:53:44.633Z,23.00
2017-09-21T05:56:12.885Z,20.37
2017-09-21T05:58:41.131Z,28.33
2017-09-21T06:01:09.582Z,22.20
2017-09-21T06:03:37.857Z,22.40
2017-09-21T06:06:06.332Z,22.10
2017-09-21T06:08:34.892Z,21.70
2017-09-21T06:11:03.312Z,28.63
2017-09-21T06:13:31.636Z,23.80
2017-09-21T06:16:00.265Z,21.27
2017-09-21T06:18:28.540Z,24.93
2017-09-21T06:20:57.104Z,26.70
2017-09-21T06:23:25.822Z,22.53
2017-09-21T06:25:54.084Z,21.77
2017-09-21T06:28:22.497Z,20.57
2017-09-21T06:30:50.758Z,21.07
2017-09-21T06:33:20.698Z,20.73
2017-09-21T06:35:50.143Z,20.30
2017-09-21T06:38:23.801Z,20.07
2017-09-21T06:40:53.785Z,21.00
2017-09-21T06:43:22.529Z,21.90
2017-09-21T06:45:50.944Z,19.00
2017-09-21T06:48:19.451Z,21.00
2017-09-21T06:50:47.907Z,21.00
2017-09-21T06:53:16.257Z,16.10
2017-09-21T06:55:44.591Z,15.20
2017-09-21T06:58:12.854Z,17.93
2017-09-21T07:00:41.706Z,20.40
2017-09-21T07:03:10.270Z,24.30
2017-09-21T07:05:39.717Z,19.70
2017-09-21T07:08:07.984Z,20.80
2017-09-21T07:10:49.476Z,24.53
2017-09-21T07:13:18.173Z,19.07
2017-09-21T07:15:47.572Z,22.77
2017-09-21T07:18:22.091Z,16.77
2017-09-21T07:20:51.703Z,22.47
2017-09-21T07:23:21.601Z,17.03
2017-09-21T07:25:53.800Z,17.10
2017-09-21T07:28:24.769Z,16.60
2017-09-21T07:30:55.302Z,11.20
2017-09-21T07:33:24.725Z,19.97
2017-09-21T07:35:53.486Z,21.57
2017-09-21T07:38:21.802Z,16.53
2017-09-21T07:40:50.070Z,17.73
2017-09-21T07:43:18.381Z,12.80
2017-09-21T07:45:46.677Z,15.80
2017-09-21T07:48:15.041Z,16.57
2017-09-21T07:50:43.393Z,15.37
2017-09-21T07:53:11.725Z,15.17
2017-09-21T07:55:40.045Z,14.30
2017-09-21T07:58:08.411Z,12.03
2017-09-21T08:03:16.378Z,17.33
2017-09-21T08:05:45.488Z,13.27
2017-09-21T08:08:14.356Z,14.30
2017-09-21T08:10:42.668Z,13.67
2017-09-21T08:13:10.927Z,16.23
2017-09-21T08:15:39.346Z,14.37
2017-09-21T08:18:08.457Z,14.33
2017-09-21T08:20:36.759Z,15.33
2017-09-21T08:23:05.005Z,13.37
2017-09-21T08:25:33.265Z,18.20
2017-09-21T08:28:01.516Z,11.23
2017-09-21T08:30:30.076Z,11.90
2017-09-21T08:32:58.308Z,12.40
2017-09-21T08:35:26.568Z,15.07
2017-09-21T08:37:54.849Z,11.00
2017-09-21T08:40:23.136Z,14.47
2017-09-21T08:42:51.528Z,7.97
2017-09-21T08:45:19.835Z,13.83
2017-09-21T08:47:48.348Z,10.30
2017-09-21T08:50:16.863Z,8.90
2017-09-21T08:52:45.121Z,10.17
2017-09-21T08:55:13.609Z,10.67
2017-09-21T08:57:42.330Z,12.80
2017-09-21T09:00:10.585Z,12.50
2017-09-21T09:02:39.420Z,8.70
2017-09-21T09:05:07.685Z,11.13
2017-09-21T09:07:37.428Z,7.87
2017-09-21T09:10:06.997Z,6.80
2017-09-21T09:12:35.685Z,8.47
2017-09-21T09:15:04.265Z,10.43
2017-09-21T09:17:39.616Z,8.77
2017-09-21T09:20:10.468Z,7.60
2017-09-21T09:22:39.629Z,8.10
2017-09-21T09:25:07.919Z,8.00
2017-09-21T09:27:36.185Z,6.77
2017-09-21T09:30:04.528Z,7.70
2017-09-21T09:32:32.808Z,8.27
2017-09-21T09:35:01.052Z,6.83
2017-09-21T09:37:29.653Z,5.90
2017-09-21T09:39:58.020Z,6.27
2017-09-21T09:42:26.349Z,5.90
2017-09-21T09:44:54.602Z,6.70
2017-09-21T09:47:22.936Z,5.00
2017-09-21T09:49:51.183Z,5.50
2017-09-21T09:52:19.521Z,5.33
2017-09-21T09:54:47.735Z,4.60
2017-09-21T09:57:16.040Z,4.90
2017-09-21T09:59:44.676Z,3.63
2017-09-21T10:02:14.996Z,3.70
2017-09-21T10:04:43.285Z,3.30
2017-09-21T10:07:11.566Z,4.10
2017-09-21T10:09:40.244Z,3.47
2017-09-21T10:12:08.520Z,2.70
2017-09-21T10:14:36.738Z,3.50
2017-09-21T10:17:05.061Z,4.10
2017-09-21T10:19:33.289Z,3.40
2017-09-21T10:22:01.945Z,3.00
2017-09-21T10:24:30.327Z,2.63
2017-09-21T10:26:58.599Z,2.70
2017-09-21T10:29:26.824Z,3.20
2017-09-21T10:31:55.076Z,3.80
2017-09-21T10:34:23.314Z,2.67
2017-09-21T10:36:51.766Z,4.10
2017-09-21T10:39:20.181Z,2.73
2017-09-21T10:41:48.457Z,2.10
2017-09-21T10:44:16.764Z,1.90
2017-09-21T10:46:45.060Z,1.90
2017-09-21T10:49:14.237Z,2.10
2017-09-21T10:51:42.590Z,2.70
2017-09-21T10:54:10.838Z,2.03
2017-09-21T10:56:39.141Z,2.80
2017-09-21T10:59:07.419Z,3.10
2017-09-21T11:01:35.730Z,3.50
2017-09-21T11:04:04.022Z,3.47
2017-09-21T11:06:32.757Z,5.00
2017-09-21T11:09:00.994Z,3.00
2017-09-21T11:11:29.309Z,4.00
2017-09-21T11:13:57.832Z,4.77
2017-09-21T11:16:26.103Z,5.00
2017-09-21T11:18:54.481Z,5.37
2017-09-21T11:21:23.347Z,5.03
2017-09-21T11:23:51.616Z,8.30
2017-09-21T11:26:19.907Z,8.03
2017-09-21T11:28:48.159Z,6.90
2017-09-21T11:31:18.004Z,7.90
2017-09-21T11:33:46.548Z,6.33
2017-09-21T11:36:14.889Z,6.40
2017-09-21T11:38:43.142Z,5.80
2017-09-21T11:41:11.491Z,5.47
2017-09-21T11:43:39.710Z,5.23
2017-09-21T11:46:07.966Z,4.90
2017-09-21T11:48:36.229Z,3.77
2017-09-21T11:51:04.484Z,5.13
2017-09-21T11:53:32.815Z,5.13
2017-09-21T11:56:01.076Z,6.90
2017-09-21T11:58:29.343Z,6.70
2017-09-21T12:00:57.606Z,5.90
2017-09-21T12:03:25.838Z,8.97
2017-09-21T12:05:56.419Z,5.73
2017-09-21T12:08:25.114Z,8.10
2017-09-21T12:10:53.471Z,7.10
2017-09-21T12:13:21.728Z,8.77
2017-09-21T12:15:50.177Z,9.83
2017-09-21T12:18:18.430Z,7.47
2017-09-21T12:20:46.689Z,9.03
2017-09-21T12:23:15.119Z,7.60
2017-09-21T12:25:43.380Z,8.80
2017-09-21T12:28:11.640Z,7.07
2017-09-21T12:30:39.939Z,8.60
2017-09-21T12:33:08.337Z,8.00
2017-09-21T12:35:36.622Z,7.10
2017-09-21T12:38:05.030Z,9.10
2017-09-21T12:40:33.293Z,8.80
2017-09-21T12:43:01.579Z,8.27
2017-09-21T12:45:29.897Z,6.70
2017-09-21T12:47:58.137Z,8.03
2017-09-21T12:50:26.447Z,8.50
2017-09-21T12:52:54.673Z,8.73
2017-09-21T12:55:23.242Z,8.63
2017-09-21T12:57:51.477Z,10.33
2017-09-21T13:00:19.752Z,8.10
2017-09-21T13:02:48.008Z,10.23
2017-09-21T13:05:16.279Z,10.73
2017-09-21T13:07:44.569Z,12.13
2017-09-21T13:10:12.910Z,11.93
2017-09-21T13:12:41.176Z,9.93
2017-09-21T13:15:09.437Z,10.87
2017-09-21T13:17:37.678Z,10.47
2017-09-21T13:20:05.952Z,9.93
2017-09-21T13:22:34.222Z,8.63
2017-09-21T13:25:02.555Z,9.10
2017-09-21T13:27:30.996Z,8.33
2017-09-21T13:29:59.249Z,8.83
2017-09-21T13:32:27.541Z,6.90
2017-09-21T13:34:55.853Z,6.70
2017-09-21T13:37:24.313Z,7.10
2017-09-21T13:39:52.624Z,5.70
2017-09-21T13:42:20.985Z,6.40
2017-09-21T13:44:49.220Z,6.83
2017-09-21T13:47:17.496Z,5.40
2017-09-21T13:49:45.800Z,5.57
2017-09-21T13:52:14.385Z,6.47
2017-09-21T13:54:42.729Z,6.23
2017-09-21T13:57:11.022Z,6.10
2017-09-21T13:59:39.845Z,6.47
2017-09-21T14:02:08.085Z,6.33
2017-09-21T14:04:36.344Z,6.00
2017-09-21T14:07:04.616Z,5.97
2017-09-21T14:09:32.850Z,6.20
2017-09-21T14:12:01.204Z,6.97
2017-09-21T14:14:29.457Z,7.10
2017-09-21T14:16:57.736Z,6.07
2017-09-21T14:19:25.969Z,6.67
2017-09-21T14:22:08.684Z,6.20
2017-09-21T14:24:37.772Z,5.53
2017-09-21T14:27:06.744Z,6.40
2017-09-21T14:29:34.997Z,6.00
2017-09-21T14:32:03.298Z,5.50
2017-09-21T14:34:31.694Z,5.80
2017-09-21T14:37:00.080Z,5.63
2017-09-21T14:39:28.356Z,4.83
2017-09-21T14:41:56.701Z,6.70
2017-09-21T14:44:25.025Z,5.93
2017-09-21T14:46:53.317Z,6.77
2017-09-21T14:49:26.948Z,6.00
2017-09-21T14:51:56.213Z,6.50
2017-09-21T14:54:24.499Z,6.60
2017-09-21T14:56:52.783Z,6.90
2017-09-21T14:59:21.001Z,5.00
2017-09-21T15:01:49.321Z,6.30
2017-09-21T15:04:26.030Z,6.20
2017-09-21T15:06:54.710Z,6.57
2017-09-21T15:09:26.990Z,7.43
2017-09-21T15:12:12.953Z,6.43
2017-09-21T15:14:48.860Z,6.90
2017-09-21T15:17:35.807Z,7.00
2017-09-21T15:20:16.611Z,6.97
2017-09-21T15:22:50.382Z,6.87
2017-09-21T15:25:20.980Z,6.53
2017-09-21T15:27:56.338Z,5.60
2017-09-21T15:30:32.430Z,6.30
2017-09-21T15:33:07.989Z,7.40
2017-09-21T15:35:55.143Z,6.20
2017-09-21T15:38:26.155Z,7.27
2017-09-21T15:41:08.284Z,6.40
2017-09-21T15:43:44.790Z,7.43
2017-09-21T15:46:15.412Z,7.10
2017-09-21T15:48:52.324Z,7.17
2017-09-21T15:51:30.644Z,6.53
2017-09-21T15:54:09.596Z,7.80
2017-09-21T15:56:52.933Z,7.37
2017-09-21T15:59:26.384Z,8.70
2017-09-21T16:01:59.444Z,9.20
2017-09-21T16:04:40.279Z,7.20
2017-09-21T16:07:24.493Z,7.03
2017-09-21T16:09:56.432Z,8.30
2017-09-21T16:12:35.432Z,8.50
2017-09-21T16:15:11.418Z,7.33
2017-09-21T16:17:54.563Z,7.63
2017-09-21T16:20:28.473Z,7.30
2017-09-21T16:22:58.642Z,7.63
2017-09-21T16:25:30.574Z,7.90
2017-09-21T16:28:04.373Z,7.10
2017-09-21T16:30:39.258Z,6.90
2017-09-21T16:33:14.128Z,6.70
2017-09-21T16:35:47.312Z,7.13
2017-09-21T16:38:16.852Z,7.10
2017-09-21T16:40:45.660Z,6.50
2017-09-21T16:43:16.269Z,7.23
2017-09-21T16:45:51.817Z,7.00
2017-09-21T16:48:26.629Z,6.13
2017-09-21T16:53:34.803Z,6.70
2017-09-21T16:56:11.824Z,6.20
2017-09-21T16:58:42.581Z,6.30
2017-09-21T17:01:13.509Z,7.27
2017-09-21T17:03:44.959Z,7.20
2017-09-21T17:06:17.040Z,6.90
2017-09-21T17:08:46.565Z,7.27
2017-09-21T17:11:20.347Z,7.43
2017-09-21T17:13:57.770Z,8.90
2017-09-21T17:16:32.491Z,6.40
2017-09-21T17:19:02.385Z,7.40
2017-09-21T17:21:44.872Z,8.00
2017-09-21T17:24:24.777Z,6.27
2017-09-21T17:26:57.753Z,7.37
2017-09-21T17:29:31.510Z,6.70
2017-09-21T17:32:04.884Z,6.73
2017-09-21T17:34:34.045Z,6.17
2017-09-21T17:37:10.210Z,7.20
2017-09-21T17:39:38.775Z,6.00
2017-09-21T17:42:09.463Z,7.20
2017-09-21T17:44:38.262Z,8.10
2017-09-21T17:47:10.272Z,7.40
2017-09-21T17:49:49.390Z,7.80
2017-09-21T17:52:30.134Z,7.17
2017-09-21T17:55:05.780Z,6.93
2017-09-21T17:57:43.111Z,6.90
2017-09-21T18:00:14.252Z,6.83
2017-09-21T18:02:47.027Z,6.67
2017-09-21T18:05:23.722Z,6.20
2017-09-21T18:08:00.347Z,8.40
2017-09-21T18:10:28.708Z,8.00
2017-09-21T18:13:04.537Z,8.13
2017-09-21T18:15:41.764Z,8.07
2017-09-21T18:18:17.702Z,9.53
2017-09-21T18:20:48.738Z,10.03
2017-09-21T18:23:20.770Z,10.10
2017-09-21T18:26:00.346Z,9.00
2017-09-21T18:28:38.978Z,8.17
2017-09-21T18:31:07.687Z,8.90
2017-09-21T18:33:57.607Z,10.30
2017-09-21T18:36:54.297Z,10.20
2017-09-21T18:39:23.613Z,10.77
2017-09-21T18:41:57.198Z,11.53
2017-09-21T18:44:28.548Z,8.40
2017-09-21T18:47:06.503Z,9.50
2017-09-21T18:49:35.096Z,9.50
2017-09-21T18:52:05.575Z,11.73
2017-09-21T18:54:42.846Z,12.03
2017-09-21T18:57:14.108Z,11.83
2017-09-21T18:59:45.404Z,12.83
2017-09-21T19:02:14.568Z,11.90
2017-09-21T19:04:47.205Z,12.13
2017-09-21T19:07:17.929Z,13.97
2017-09-21T19:09:46.664Z,15.93
2017-09-21T19:12:15.143Z,14.40
2017-09-21T19:14:43.575Z,12.90
2017-09-21T19:17:12.135Z,10.23
2017-09-21T19:19:40.549Z,11.90
2017-09-21T19:22:09.260Z,10.70
2017-09-21T19:24:37.906Z,11.20
2017-09-21T19:27:06.427Z,14.20
2017-09-21T19:29:35.124Z,12.47
2017-09-21T19:32:08.895Z,13.10
2017-09-21T19:34:43.650Z,13.00
2017-09-21T19:37:13.232Z,13.83
2017-09-21T19:39:42.935Z,14.87
2017-09-21T19:42:16.396Z,13.73
2017-09-21T19:44:51.836Z,14.97
2017-09-21T19:47:30.276Z,14.53
2017-09-21T19:50:10.104Z,11.20
2017-09-21T19:52:41.055Z,13.17
2017-09-21T19:55:10.119Z,13.93
2017-09-21T19:57:41.543Z,13.73
2017-09-21T20:00:16.458Z,14.97
2017-09-21T20:02:57.584Z,16.23
2017-09-21T20:05:29.081Z,12.47
2017-09-21T20:07:58.157Z,12.67
2017-09-21T20:10:47.958Z,13.00
2017-09-21T20:13:29.645Z,13.77
2017-09-21T20:15:59.556Z,15.80
2017-09-21T20:18:29.917Z,14.47
2017-09-21T20:21:02.403Z,12.13
2017-09-21T20:23:41.256Z,14.77
2017-09-21T20:26:35.393Z,12.43
2017-09-21T20:30:16.265Z,17.60
2017-09-21T20:32:44.882Z,15.37
2017-09-21T20:35:13.301Z,14.50
2017-09-21T20:37:43.203Z,14.50
2017-09-21T20:40:11.846Z,14.60
2017-09-21T20:42:40.164Z,16.13
2017-09-21T20:45:09.060Z,18.33
2017-09-21T20:47:37.885Z,17.57
2017-09-21T20:50:06.281Z,18.30
2017-09-21T20:52:34.960Z,17.50
2017-09-21T20:55:03.969Z,18.23
2017-09-21T20:57:32.348Z,20.80
2017-09-21T21:00:00.777Z,19.00
2017-09-21T21:02:29.487Z,19.67
2017-09-21T21:04:57.926Z,16.70
2017-09-21T21:07:26.762Z,15.60
2017-09-21T21:09:55.415Z,16.50
2017-09-21T21:12:23.906Z,15.63
2017-09-21T21:14:52.566Z,16.40
2017-09-21T21:17:21.292Z,19.10
2017-09-21T21:19:51.049Z,16.63
2017-09-21T21:22:19.764Z,13.40
2017-09-21T21:24:49.315Z,24.20
2017-09-21T21:27:17.821Z,18.60
2017-09-21T21:29:46.117Z,18.07
2017-09-21T21:32:14.596Z,17.70
2017-09-21T21:34:44.940Z,15.17
2017-09-21T21:37:14.119Z,19.10
2017-09-21T21:39:42.496Z,17.10
2017-09-21T21:42:10.920Z,17.00
2017-09-21T21:44:39.195Z,15.80
2017-09-21T21:47:07.630Z,15.07
2017-09-21T21:49:36.271Z,17.50
2017-09-21T21:52:06.116Z,17.07
2017-09-21T21:54:35.148Z,18.07
2017-09-21T21:57:05.340Z,16.63
2017-09-21T21:59:33.996Z,17.20
2017-09-21T22:02:02.341Z,17.87
2017-09-21T22:04:30.692Z,18.40
2017-09-21T22:07:00.064Z,17.97
2017-09-21T22:09:29.077Z,18.37
2017-09-21T22:11:57.606Z,19.03
2017-09-21T22:14:26.079Z,17.60
2017-09-21T22:16:54.601Z,18.70
2017-09-21T22:19:23.108Z,20.20
2017-09-21T22:21:52.566Z,12.80
2017-09-21T22:24:21.666Z,14.20
2017-09-21T22:26:50.453Z,15.07
2017-09-21T22:29:20.429Z,19.50
2017-09-21T22:31:49.249Z,17.20
2017-09-21T22:34:17.525Z,13.40
2017-09-21T22:36:45.885Z,15.07
2017-09-21T22:39:14.221Z,14.50
2017-09-21T22:41:42.749Z,14.60
2017-09-21T22:44:11.043Z,18.00
2017-09-21T22:46:39.417Z,15.47
2017-09-21T22:49:07.740Z,21.17
2017-09-21T22:51:36.106Z,16.70
2017-09-21T22:54:04.457Z,16.23
2017-09-21T22:56:32.801Z,15.33
2017-09-21T22:59:02.345Z,13.80
2017-09-21T23:01:31.644Z,14.67
2017-09-21T23:04:00.684Z,16.30
2017-09-21T23:06:29.360Z,16.90
2017-09-21T23:08:57.766Z,17.00
2017-09-21T23:11:29.508Z,18.47
2017-09-21T23:13:58.008Z,16.40
2017-09-21T23:16:26.919Z,17.20
2017-09-21T23:18:56.080Z,17.23
2017-09-21T23:21:24.479Z,14.27
2017-09-21T23:23:52.761Z,15.73
2017-09-21T23:26:21.278Z,14.27
2017-09-21T23:28:49.795Z,17.20
2017-09-21T23:31:18.425Z,18.43
2017-09-21T23:33:47.405Z,15.67
2017-09-21T23:36:16.574Z,17.80
2017-09-21T23:38:45.037Z,18.20
2017-09-21T23:41:17.146Z,13.97
2017-09-21T23:43:45.708Z,15.90
2017-09-21T23:46:14.441Z,18.67
2017-09-21T23:48:43.485Z,15.33
2017-09-21T23:51:13.215Z,16.37
2017-09-21T23:53:41.892Z,12.60
2017-09-21T23:56:10.392Z,15.83
2017-09-21T23:58:39.728Z,17.10
